createdAt,value
2023-05-16T00:02:03.889Z,15.43
2023-05-16T00:04:38.220Z,15.26
2023-05-16T00:07:10.208Z,14.98
2023-05-16T00:09:45.943Z,14.63
2023-05-16T00:12:19.758Z,15.02
2023-05-16T00:14:53.673Z,14.74
2023-05-16T00:17:28.894Z,14.74
2023-05-16T00:20:03.044Z,14.35
2023-05-16T00:22:36.312Z,14.52
2023-05-16T00:25:09.455Z,14.87
2023-05-16T00:27:42.350Z,14.85
2023-05-16T00:30:15.067Z,15.06
2023-05-16T00:32:48.268Z,15.09
2023-05-16T00:35:20.769Z,15.34
2023-05-16T00:37:55.450Z,15.16
2023-05-16T00:40:28.217Z,15.44
2023-05-16T00:43:01.564Z,15.30
2023-05-16T00:45:33.508Z,14.43
2023-05-16T00:48:07.448Z,15.07
2023-05-16T00:50:39.454Z,15.46
2023-05-16T00:53:12.678Z,14.81
2023-05-16T00:55:45.256Z,14.74
2023-05-16T00:58:18.798Z,14.43
2023-05-16T01:00:51.218Z,15.13
2023-05-16T01:03:24.235Z,14.28
2023-05-16T01:05:58.559Z,13.73
2023-05-16T01:08:31.040Z,13.36
2023-05-16T01:11:27.835Z,14.22
2023-05-16T01:14:06.296Z,14.16
2023-05-16T01:17:00.155Z,14.32
2023-05-16T01:19:47.938Z,14.59
2023-05-16T01:22:37.988Z,14.65
2023-05-16T01:25:29.343Z,14.49
2023-05-16T01:28:03.008Z,14.31
2023-05-16T01:30:39.799Z,13.53
2023-05-16T01:33:13.878Z,14.20
2023-05-16T01:36:13.438Z,13.60
2023-05-16T01:39:33.544Z,13.26
2023-05-16T01:42:09.925Z,13.55
2023-05-16T01:45:01.115Z,13.33
2023-05-16T01:47:37.324Z,13.24
2023-05-16T01:50:17.797Z,13.40
2023-05-16T01:53:11.758Z,13.02
2023-05-16T01:55:51.431Z,13.20
2023-05-16T01:58:29.661Z,12.91
2023-05-16T02:01:05.585Z,13.16
2023-05-16T02:03:38.684Z,13.33
2023-05-16T02:06:12.342Z,13.01
2023-05-16T02:08:45.430Z,13.26
2023-05-16T02:11:17.930Z,13.26
2023-05-16T02:13:50.199Z,13.01
2023-05-16T02:16:22.084Z,13.56
2023-05-16T02:18:54.888Z,13.87
2023-05-16T02:21:27.928Z,13.81
2023-05-16T02:24:00.651Z,13.78
2023-05-16T02:26:32.577Z,14.89
2023-05-16T02:29:06.192Z,15.34
2023-05-16T02:31:38.277Z,15.28
2023-05-16T02:34:11.350Z,15.18
2023-05-16T02:36:43.705Z,15.16
2023-05-16T02:39:16.016Z,14.78
2023-05-16T02:41:48.407Z,15.15
2023-05-16T02:44:21.095Z,14.83
2023-05-16T02:46:53.071Z,15.50
2023-05-16T02:49:27.150Z,15.42
2023-05-16T02:51:59.532Z,15.10
2023-05-16T02:54:32.697Z,14.93
2023-05-16T02:57:04.883Z,15.31
2023-05-16T02:59:38.161Z,14.72
2023-05-16T03:02:11.330Z,14.79
2023-05-16T03:04:45.226Z,14.70
2023-05-16T03:07:18.283Z,14.64
2023-05-16T03:09:51.395Z,14.57
2023-05-16T03:12:24.061Z,13.90
2023-05-16T03:14:56.013Z,13.48
2023-05-16T03:17:29.286Z,13.31
2023-05-16T03:20:03.871Z,13.18
2023-05-16T03:22:36.589Z,13.08
2023-05-16T03:25:08.831Z,13.04
2023-05-16T03:27:46.463Z,12.93
2023-05-16T03:30:20.001Z,12.98
2023-05-16T03:32:53.288Z,12.95
2023-05-16T03:35:26.335Z,12.72
2023-05-16T03:37:58.510Z,12.50
2023-05-16T03:40:32.267Z,12.50
2023-05-16T03:43:05.306Z,12.56
2023-05-16T03:48:32.610Z,12.55
2023-05-16T03:51:05.862Z,12.48
2023-05-16T03:53:38.824Z,12.43
2023-05-16T03:56:10.709Z,12.36
2023-05-16T03:58:46.044Z,12.34
2023-05-16T04:01:20.121Z,12.36
2023-05-16T04:03:53.331Z,12.34
2023-05-16T04:06:26.273Z,12.25
2023-05-16T04:08:58.292Z,12.22
2023-05-16T04:11:31.474Z,12.28
2023-05-16T04:14:24.766Z,12.19
2023-05-16T04:16:56.803Z,12.24
2023-05-16T04:19:29.610Z,12.22
2023-05-16T04:22:01.950Z,12.22
2023-05-16T04:24:34.549Z,12.23
2023-05-16T04:27:10.583Z,12.22
2023-05-16T04:29:43.911Z,12.18
2023-05-16T04:32:17.358Z,12.16
2023-05-16T04:34:53.655Z,12.16
2023-05-16T04:37:25.637Z,12.16
2023-05-16T04:39:59.393Z,12.22
2023-05-16T04:42:32.644Z,12.22
2023-05-16T04:45:07.136Z,12.22
2023-05-16T04:47:40.815Z,12.32
2023-05-16T04:50:13.622Z,12.31
2023-05-16T04:52:45.552Z,12.27
2023-05-16T04:55:18.500Z,12.24
2023-05-16T04:57:51.257Z,12.25
2023-05-16T05:00:23.650Z,12.24
2023-05-16T05:02:57.508Z,12.27
2023-05-16T05:05:30.680Z,12.27
2023-05-16T05:08:03.368Z,12.23
2023-05-16T05:10:35.875Z,12.22
2023-05-16T05:13:08.873Z,12.20
2023-05-16T05:15:41.191Z,12.17
2023-05-16T05:18:14.558Z,12.15
2023-05-16T05:20:47.085Z,12.15
2023-05-16T05:23:20.378Z,12.23
2023-05-16T05:25:52.732Z,12.17
2023-05-16T05:28:26.056Z,12.23
2023-05-16T05:30:58.500Z,12.10
2023-05-16T05:33:31.376Z,12.15
2023-05-16T05:36:05.178Z,12.23
2023-05-16T05:41:30.378Z,12.13
2023-05-16T05:44:04.564Z,12.09
2023-05-16T05:46:37.937Z,12.08
2023-05-16T05:49:10.353Z,12.17
2023-05-16T05:51:44.155Z,12.08
2023-05-16T05:54:16.802Z,11.96
2023-05-16T05:56:51.625Z,12.03
2023-05-16T05:59:24.599Z,11.98
2023-05-16T06:01:59.737Z,11.79
2023-05-16T06:04:33.328Z,11.82
2023-05-16T06:07:07.429Z,11.95
2023-05-16T06:09:39.852Z,11.84
2023-05-16T06:12:13.028Z,11.83
2023-05-16T06:14:47.757Z,11.87
2023-05-16T06:17:20.921Z,11.74
2023-05-16T06:19:52.790Z,11.65
2023-05-16T06:22:26.086Z,11.63
2023-05-16T06:24:58.420Z,11.68
2023-05-16T06:27:33.485Z,11.62
2023-05-16T06:30:06.541Z,11.57
2023-05-16T06:32:42.087Z,11.67
2023-05-16T06:35:14.100Z,11.67
2023-05-16T06:37:48.381Z,11.59
2023-05-16T06:40:20.771Z,11.58
2023-05-16T06:42:53.550Z,12.45
2023-05-16T06:45:26.959Z,12.77
2023-05-16T06:48:01.053Z,11.97
2023-05-16T06:50:54.928Z,11.72
2023-05-16T06:53:28.015Z,11.66
2023-05-16T06:56:00.429Z,11.62
2023-05-16T06:58:33.807Z,11.66
2023-05-16T07:01:05.943Z,11.53
2023-05-16T07:03:40.244Z,11.68
2023-05-16T07:06:12.647Z,11.66
2023-05-16T07:08:46.143Z,11.59
2023-05-16T07:11:18.535Z,11.58
2023-05-16T07:13:52.831Z,11.71
2023-05-16T07:16:28.404Z,11.65
2023-05-16T07:21:55.235Z,11.54
2023-05-16T07:24:30.088Z,11.59
2023-05-16T07:27:02.107Z,11.48
2023-05-16T07:29:37.314Z,11.39
2023-05-16T07:32:09.739Z,11.53
2023-05-16T07:34:43.015Z,11.61
2023-05-16T07:37:16.199Z,11.53
2023-05-16T07:39:51.098Z,11.54
2023-05-16T07:42:25.821Z,11.53
2023-05-16T07:50:47.273Z,11.51
2023-05-16T07:53:22.790Z,11.56
2023-05-16T07:55:57.417Z,11.61
2023-05-16T07:58:30.135Z,11.67
2023-05-16T08:01:02.149Z,11.58
2023-05-16T08:03:39.122Z,11.65
2023-05-16T08:06:12.589Z,11.63
2023-05-16T08:08:48.068Z,11.53
2023-05-16T08:11:22.592Z,11.64
2023-05-16T08:13:56.602Z,11.70
2023-05-16T08:16:31.409Z,11.54
2023-05-16T08:19:05.223Z,11.60
2023-05-16T08:21:38.117Z,11.65
2023-05-16T08:24:32.406Z,11.65
2023-05-16T08:27:05.109Z,11.63
2023-05-16T08:29:37.853Z,11.75
2023-05-16T08:32:11.124Z,11.82
2023-05-16T08:34:47.513Z,11.78
2023-05-16T08:37:19.498Z,11.81
2023-05-16T08:39:56.062Z,11.80
2023-05-16T08:42:28.496Z,11.98
2023-05-16T08:45:02.182Z,12.01
2023-05-16T08:47:36.943Z,11.98
2023-05-16T08:50:11.325Z,11.89
2023-05-16T08:52:45.972Z,11.85
2023-05-16T08:55:23.641Z,11.78
2023-05-16T08:57:57.799Z,11.74
2023-05-16T09:00:34.286Z,11.81
2023-05-16T09:03:07.459Z,11.75
2023-05-16T09:05:40.387Z,11.72
2023-05-16T09:08:12.512Z,11.78
2023-05-16T09:10:46.563Z,11.83
2023-05-16T09:13:19.119Z,11.90
2023-05-16T09:16:23.012Z,11.88
2023-05-16T09:18:59.170Z,11.94
2023-05-16T09:21:35.940Z,11.85
2023-05-16T09:24:09.966Z,11.94
2023-05-16T09:27:15.618Z,11.89
2023-05-16T09:29:51.881Z,11.92
2023-05-16T09:32:26.782Z,12.02
2023-05-16T09:34:59.850Z,11.96
2023-05-16T09:37:33.685Z,12.01
2023-05-16T09:40:07.317Z,12.04
2023-05-16T09:42:40.446Z,12.01
2023-05-16T09:45:14.431Z,11.98
2023-05-16T09:47:47.886Z,12.08
2023-05-16T09:50:20.068Z,11.99
2023-05-16T09:52:56.113Z,11.94
2023-05-16T09:55:29.468Z,11.95
2023-05-16T09:58:04.599Z,11.88
2023-05-16T10:00:36.983Z,11.80
2023-05-16T10:03:12.097Z,11.91
2023-05-16T10:05:44.776Z,11.88
2023-05-16T10:08:16.981Z,11.89
2023-05-16T10:10:56.095Z,11.83
2023-05-16T10:13:34.193Z,11.97
2023-05-16T10:16:12.426Z,12.02
2023-05-16T10:18:45.722Z,11.91
2023-05-16T10:21:19.728Z,12.00
2023-05-16T10:23:53.398Z,12.00
2023-05-16T10:26:26.445Z,12.04
2023-05-16T10:29:03.138Z,12.08
2023-05-16T10:31:36.171Z,11.99
2023-05-16T10:34:09.151Z,12.12
2023-05-16T10:36:41.218Z,12.06
2023-05-16T10:39:15.598Z,12.16
2023-05-16T10:41:47.996Z,12.16
2023-05-16T10:44:21.055Z,12.18
2023-05-16T10:46:53.017Z,12.15
2023-05-16T10:49:27.887Z,12.18
2023-05-16T10:52:09.513Z,12.14
2023-05-16T10:54:45.370Z,12.15
2023-05-16T10:57:22.953Z,12.13
2023-05-16T10:59:59.312Z,12.16
2023-05-16T11:02:34.773Z,12.06
2023-05-16T11:05:09.313Z,12.11
2023-05-16T11:07:41.639Z,12.16
2023-05-16T11:10:17.518Z,12.15
2023-05-16T11:12:51.906Z,12.24
2023-05-16T11:15:28.801Z,12.31
2023-05-16T11:18:07.166Z,12.27
2023-05-16T11:20:41.345Z,12.43
2023-05-16T11:23:22.233Z,12.43
2023-05-16T11:25:58.088Z,12.46
2023-05-16T11:28:30.515Z,12.45
2023-05-16T11:31:05.673Z,12.39
2023-05-16T11:33:40.040Z,12.49
2023-05-16T11:36:16.178Z,12.28
2023-05-16T11:38:48.477Z,12.32
2023-05-16T11:41:22.939Z,12.33
2023-05-16T11:43:56.036Z,12.32
2023-05-16T11:46:28.735Z,12.33
2023-05-16T11:49:01.178Z,12.37
2023-05-16T11:51:35.215Z,12.33
2023-05-16T11:54:09.618Z,12.41
2023-05-16T11:56:43.211Z,12.36
2023-05-16T11:59:15.736Z,12.34
2023-05-16T12:01:51.100Z,12.25
2023-05-16T12:04:23.564Z,12.27
2023-05-16T12:07:01.915Z,12.32
2023-05-16T12:09:34.244Z,12.25
2023-05-16T12:12:08.273Z,12.23
2023-05-16T12:14:40.767Z,12.19
2023-05-16T12:17:14.153Z,12.10
2023-05-16T12:19:46.551Z,12.14
2023-05-16T12:22:23.704Z,12.06
2023-05-16T12:24:55.773Z,12.08
2023-05-16T12:27:28.910Z,12.03
2023-05-16T12:30:01.213Z,12.02
2023-05-16T12:32:37.841Z,12.12
2023-05-16T12:35:13.519Z,12.09
2023-05-16T12:37:46.106Z,12.09
2023-05-16T12:40:20.539Z,12.05
2023-05-16T12:42:54.044Z,11.91
2023-05-16T12:45:29.839Z,11.86
2023-05-16T12:48:08.521Z,11.92
2023-05-16T12:50:42.294Z,11.88
2023-05-16T12:53:15.585Z,11.87
2023-05-16T12:55:48.620Z,11.82
2023-05-16T12:58:21.102Z,11.83
2023-05-16T13:00:54.097Z,11.93
2023-05-16T13:03:26.304Z,11.92
2023-05-16T13:06:00.258Z,11.95
2023-05-16T13:08:32.901Z,11.85
2023-05-16T13:11:06.780Z,11.95
2023-05-16T13:13:39.347Z,11.91
2023-05-16T13:16:12.439Z,11.83
2023-05-16T13:18:44.526Z,11.91
2023-05-16T13:21:18.036Z,11.82
2023-05-16T13:23:50.042Z,11.83
2023-05-16T13:26:22.850Z,11.71
2023-05-16T13:28:57.913Z,12.43
2023-05-16T13:31:30.961Z,12.00
2023-05-16T13:34:03.384Z,11.93
2023-05-16T13:36:52.422Z,11.79
2023-05-16T13:39:27.173Z,11.76
2023-05-16T13:42:00.010Z,11.74
2023-05-16T13:44:33.603Z,11.86
2023-05-16T13:47:05.677Z,11.73
2023-05-16T13:49:39.297Z,11.60
2023-05-16T13:52:11.899Z,11.63
2023-05-16T13:54:45.088Z,11.62
2023-05-16T13:57:17.353Z,11.59
2023-05-16T14:02:26.438Z,11.56
2023-05-16T14:04:59.378Z,11.55
2023-05-16T14:07:31.509Z,11.53
2023-05-16T14:10:05.408Z,11.56
2023-05-16T14:12:38.072Z,11.56
2023-05-16T14:15:11.368Z,11.55
2023-05-16T14:17:43.784Z,11.56
2023-05-16T14:20:16.898Z,11.52
2023-05-16T14:22:48.870Z,11.59
2023-05-16T14:25:21.511Z,11.59
2023-05-16T14:27:53.931Z,11.65
2023-05-16T14:30:27.650Z,11.64
2023-05-16T14:33:01.257Z,11.56
2023-05-16T14:35:34.518Z,11.65
2023-05-16T14:38:07.446Z,11.67
2023-05-16T14:40:40.533Z,11.71
2023-05-16T14:43:12.504Z,11.77
2023-05-16T14:45:45.450Z,11.80
2023-05-16T14:48:17.985Z,11.78
2023-05-16T14:50:52.100Z,11.69
2023-05-16T14:53:24.267Z,11.79
2023-05-16T14:55:56.956Z,11.80
2023-05-16T14:58:29.204Z,11.73
2023-05-16T15:01:02.379Z,11.77
2023-05-16T15:03:46.849Z,11.60
2023-05-16T15:06:27.437Z,11.69
2023-05-16T15:09:00.244Z,11.65
2023-05-16T15:11:32.316Z,11.55
2023-05-16T15:14:05.419Z,11.49
2023-05-16T15:16:37.870Z,11.52
2023-05-16T15:19:10.920Z,11.60
2023-05-16T15:21:43.804Z,11.52
2023-05-16T15:24:17.363Z,11.45
2023-05-16T15:26:50.055Z,11.49
2023-05-16T15:29:23.204Z,11.51
2023-05-16T15:31:55.228Z,11.51
2023-05-16T15:34:29.148Z,11.49
2023-05-16T15:37:01.342Z,11.48
2023-05-16T15:39:34.300Z,11.53
2023-05-16T15:42:11.072Z,11.44
2023-05-16T15:44:44.056Z,11.43
2023-05-16T15:47:16.416Z,11.43
2023-05-16T15:49:49.489Z,11.46
2023-05-16T15:52:23.004Z,11.38
2023-05-16T15:54:55.725Z,11.43
2023-05-16T15:57:28.134Z,11.42
2023-05-16T16:00:00.816Z,11.38
2023-05-16T16:02:32.945Z,11.38
2023-05-16T16:05:06.158Z,11.44
2023-05-16T16:07:38.584Z,11.44
2023-05-16T16:10:12.416Z,11.39
2023-05-16T16:12:55.623Z,11.39
2023-05-16T16:15:32.554Z,11.31
2023-05-16T16:18:06.855Z,11.30
2023-05-16T16:20:39.653Z,11.28
2023-05-16T16:23:11.712Z,11.31
2023-05-16T16:25:44.765Z,11.29
2023-05-16T16:28:17.255Z,11.36
2023-05-16T16:30:50.773Z,11.33
2023-05-16T16:33:23.487Z,11.36
2023-05-16T16:35:55.897Z,11.28
2023-05-16T16:38:28.630Z,11.27
2023-05-16T16:41:01.223Z,11.24
2023-05-16T16:43:34.209Z,11.33
2023-05-16T16:46:07.452Z,11.39
2023-05-16T16:48:41.765Z,11.45
2023-05-16T16:51:13.720Z,11.43
2023-05-16T16:53:46.468Z,11.35
2023-05-16T16:56:19.631Z,11.34
2023-05-16T16:58:53.583Z,11.44
2023-05-16T17:01:28.971Z,11.44
2023-05-16T17:04:03.152Z,11.44
2023-05-16T17:06:35.593Z,11.44
2023-05-16T17:09:13.893Z,11.36
2023-05-16T17:11:50.194Z,11.22
2023-05-16T17:14:24.575Z,11.17
2023-05-16T17:16:56.701Z,11.25
2023-05-16T17:19:29.602Z,11.32
2023-05-16T17:22:02.325Z,11.21
2023-05-16T17:24:35.250Z,11.30
2023-05-16T17:27:07.627Z,11.30
2023-05-16T17:29:40.568Z,11.26
2023-05-16T17:32:12.589Z,11.20
2023-05-16T17:34:45.219Z,11.20
2023-05-16T17:37:17.753Z,11.15
2023-05-16T17:39:50.764Z,11.30
2023-05-16T17:42:22.817Z,11.23
2023-05-16T17:44:55.461Z,11.16
2023-05-16T17:47:27.414Z,11.19
2023-05-16T17:50:00.456Z,11.16
2023-05-16T17:52:32.876Z,11.14
2023-05-16T17:55:07.181Z,11.13
2023-05-16T17:57:39.926Z,11.17
2023-05-16T18:00:14.965Z,11.10
2023-05-16T18:02:49.911Z,11.15
2023-05-16T18:05:22.267Z,11.13
2023-05-16T18:07:55.158Z,11.11
2023-05-16T18:10:31.584Z,11.14
2023-05-16T18:13:12.734Z,11.19
2023-05-16T18:15:45.526Z,11.17
2023-05-16T18:18:18.808Z,11.23
2023-05-16T18:20:53.619Z,11.11
2023-05-16T18:23:26.121Z,11.27
2023-05-16T18:25:58.967Z,11.17
2023-05-16T18:28:30.946Z,11.23
2023-05-16T18:31:04.125Z,11.15
2023-05-16T18:33:36.805Z,11.33
2023-05-16T18:36:09.676Z,13.86
2023-05-16T18:38:42.042Z,14.52
2023-05-16T18:41:18.484Z,14.24
2023-05-16T18:43:51.080Z,14.04
2023-05-16T18:46:24.141Z,14.16
2023-05-16T18:48:57.854Z,13.73
2023-05-16T18:51:31.782Z,12.66
2023-05-16T18:54:04.227Z,12.13
2023-05-16T18:56:58.219Z,11.83
2023-05-16T18:59:30.426Z,11.61
2023-05-16T19:02:04.364Z,11.21
2023-05-16T19:04:36.564Z,11.16
2023-05-16T19:07:10.994Z,11.08
2023-05-16T19:09:43.406Z,10.91
2023-05-16T19:12:16.634Z,10.81
2023-05-16T19:14:49.430Z,10.78
2023-05-16T19:17:24.673Z,10.68
2023-05-16T19:19:59.845Z,10.59
2023-05-16T19:22:32.755Z,10.69
2023-05-16T19:25:06.609Z,10.58
2023-05-16T19:27:39.111Z,10.52
2023-05-16T19:30:14.032Z,10.39
2023-05-16T19:32:46.667Z,10.35
2023-05-16T19:35:19.529Z,10.33
2023-05-16T19:37:52.585Z,10.36
2023-05-16T19:40:24.727Z,10.25
2023-05-16T19:45:51.109Z,10.27
2023-05-16T19:48:27.130Z,10.32
2023-05-16T19:50:59.858Z,10.30
2023-05-16T19:53:32.460Z,10.34
2023-05-16T19:56:05.150Z,10.24
2023-05-16T19:58:37.644Z,10.19
2023-05-16T20:01:11.054Z,10.14
2023-05-16T20:03:44.331Z,10.15
2023-05-16T20:06:16.868Z,10.23
2023-05-16T20:08:49.884Z,10.15
2023-05-16T20:11:23.146Z,10.20
2023-05-16T20:13:56.472Z,9.95
2023-05-16T20:16:28.655Z,9.80
2023-05-16T20:19:02.096Z,9.83
2023-05-16T20:21:34.515Z,9.69
2023-05-16T20:24:07.097Z,9.71
2023-05-16T20:26:40.530Z,9.71
2023-05-16T20:29:13.366Z,9.64
2023-05-16T20:31:45.677Z,9.55
2023-05-16T20:34:17.675Z,9.57
2023-05-16T20:36:50.487Z,9.52
2023-05-16T20:39:23.343Z,9.53
2023-05-16T20:41:56.167Z,9.55
2023-05-16T20:44:29.709Z,9.49
2023-05-16T20:47:01.652Z,9.46
2023-05-16T20:49:37.903Z,9.38
2023-05-16T20:52:10.513Z,9.43
2023-05-16T20:54:45.128Z,9.46
2023-05-16T20:57:18.692Z,9.63
2023-05-16T20:59:51.442Z,9.60
2023-05-16T21:02:24.562Z,9.67
2023-05-16T21:04:59.286Z,9.69
2023-05-16T21:07:34.873Z,9.63
2023-05-16T21:10:07.586Z,9.66
2023-05-16T21:12:39.757Z,9.70
2023-05-16T21:15:12.547Z,9.77
2023-05-16T21:17:45.012Z,9.67
2023-05-16T21:20:17.148Z,9.56
2023-05-16T21:22:49.957Z,9.54
2023-05-16T21:25:22.470Z,9.46
2023-05-16T21:27:54.819Z,9.40
2023-05-16T21:30:27.693Z,9.31
2023-05-16T21:33:00.314Z,9.26
2023-05-16T21:35:32.360Z,9.23
2023-05-16T21:38:05.182Z,9.15
2023-05-16T21:40:37.631Z,9.25
2023-05-16T21:43:09.975Z,9.28
2023-05-16T21:45:42.853Z,9.26
2023-05-16T21:48:15.389Z,9.27
2023-05-16T21:50:48.884Z,9.20
2023-05-16T21:53:23.963Z,9.09
2023-05-16T21:55:56.725Z,9.08
2023-05-16T21:58:29.077Z,8.99
2023-05-16T22:01:01.301Z,8.93
2023-05-16T22:03:34.237Z,8.90
2023-05-16T22:06:06.834Z,8.88
2023-05-16T22:08:39.194Z,8.83
2023-05-16T22:11:12.429Z,8.79
2023-05-16T22:13:44.383Z,8.73
2023-05-16T22:16:17.670Z,8.73
2023-05-16T22:18:49.742Z,8.77
2023-05-16T22:21:23.304Z,8.80
2023-05-16T22:23:55.244Z,8.65
2023-05-16T22:26:27.995Z,8.68
2023-05-16T22:29:00.375Z,8.71
2023-05-16T22:31:32.329Z,8.64
2023-05-16T22:34:05.255Z,8.56
2023-05-16T22:36:37.373Z,8.57
2023-05-16T22:39:11.064Z,9.87
2023-05-16T22:41:43.141Z,11.97
2023-05-16T22:44:16.319Z,12.10
2023-05-16T22:46:48.825Z,11.39
2023-05-16T22:49:21.386Z,12.13
2023-05-16T22:51:53.330Z,11.72
2023-05-16T22:54:25.769Z,11.49
2023-05-16T22:56:58.101Z,12.18
2023-05-16T22:59:31.470Z,11.40
2023-05-16T23:02:03.834Z,10.19
2023-05-16T23:04:37.660Z,11.73
2023-05-16T23:07:09.722Z,12.50
2023-05-16T23:09:42.479Z,11.34
2023-05-16T23:12:14.825Z,11.56
2023-05-16T23:14:47.866Z,12.91
2023-05-16T23:17:19.929Z,12.63
2023-05-16T23:19:52.915Z,13.48
2023-05-16T23:22:25.280Z,12.89
2023-05-16T23:24:58.477Z,11.86
2023-05-16T23:27:30.469Z,11.87
2023-05-16T23:30:03.790Z,12.29
2023-05-16T23:32:36.568Z,11.63
2023-05-16T23:35:09.628Z,12.13
2023-05-16T23:37:41.660Z,12.90
2023-05-16T23:40:14.730Z,12.64
2023-05-16T23:42:46.772Z,11.38
2023-05-16T23:45:19.580Z,11.83
2023-05-16T23:47:52.054Z,11.65
2023-05-16T23:50:24.546Z,11.11
2023-05-16T23:52:56.547Z,11.28
2023-05-16T23:55:28.652Z,11.44
2023-05-16T23:58:00.841Z,10.39
